Time;durP1;ratioP1;P1;durP2;ratioP2;P2;SDS_P1;SDS_P2;PMS_P1;PMS_P2;Temp;Humidity;BMP_temperature;BMP_pressure;BME280_temperature;BME280_humidity;BME280_pressure;Samples;Min_cycle;Max_cycle;Signal;HPM_P1;HPM_P2
2021/08/05 00:00:16;;;;;;;;;;;;;;;;;;6089499;23;19926;-82
2021/08/05 00:02:45;;;;;;;;;;;;;;;;;;6069845;23;19936;-81
2021/08/05 00:05:14;;;;;;;;;;;;;;;;;;6069565;23;20177;-81
2021/08/05 00:07:43;;;;;;;;;;;;;;;;;;6070920;23;20262;-81
2021/08/05 00:10:15;;;;;;;;;;;;;;;;;;6064453;23;19928;-88
2021/08/05 00:12:45;;;;;;;;;;;;;;;;;;6070043;23;19922;-84
2021/08/05 00:15:15;;;;;;;;;;;;;;;;;;6071769;23;19925;-87
2021/08/05 00:17:47;;;;;;;;;;;;;;;;;;6096054;23;19928;-85
2021/08/05 00:20:17;;;;;;;;;;;;;;;;;;6071167;23;19925;-82
2021/08/05 00:22:48;;;;;;;;;;;;;;;;;;6072324;23;19925;-89
2021/08/05 00:25:21;;;;;;;;;;;;;;;;;;6046392;23;20163;-88
2021/08/05 00:27:51;;;;;;;;;;;;;;;;;;6064660;23;19925;-89
2021/08/05 00:30:22;;;;;;;;;;;;;;;;;;6067851;23;19928;-82
2021/08/05 00:32:52;;;;;;;;;;;;;;;;;;6065968;23;20154;-83
2021/08/05 00:35:22;;;;;;;;;;;;;;;;;;6072051;23;19921;-81
2021/08/05 00:37:53;;;;;;;;;;;;;;;;;;6068659;23;19936;-85
2021/08/05 00:40:25;;;;;;;;;;;;;;;;;;6069681;23;19928;-83
2021/08/05 00:42:55;;;;;;;;;;;;;;;;;;6067533;23;19925;-81
2021/08/05 00:45:23;;;;;;;;;;;;;;;;;;6095483;23;19931;-81
2021/08/05 00:47:53;;;;;;;;;;;;;;;;;;6098270;23;19920;-83
2021/08/05 00:50:23;;;;;;;;;;;;;;;;;;6095901;23;20281;-87
2021/08/05 00:52:52;;;;;;;;;;;;;;;;;;6096356;23;19941;-84
2021/08/05 00:55:21;;;;;;;;;;;;;;;;;;6099053;23;19921;-86
2021/08/05 00:57:53;;;;;;;;;;;;;;;;;;6098658;23;19921;-84
2021/08/05 01:00:25;;;;;;;;;;;;;;;;;;6075642;23;19921;-88
2021/08/05 01:03:04;;;;;;;;;;;;;;;;;;6098481;23;20262;-83
2021/08/05 01:05:36;;;;;;;;;;;;;;;;;;6097831;23;19931;-82
2021/08/05 01:08:07;;;;;;;;;;;;;;;;;;6077138;23;19935;-84
2021/08/05 01:10:49;;;;;;;;;;;;;;;;;;6096346;23;20331;-85
2021/08/05 01:13:29;;;;;;;;;;;;;;;;;;6094352;23;19921;-87
2021/08/05 01:16:04;;;;;;;;;;;;;;;;;;6095921;23;19921;-88
2021/08/05 01:18:41;;;;;;;;;;;;;;;;;;6074706;23;19928;-88
2021/08/05 01:29:24;;;;;;;;;;;;;;;;;;6157028;23;19928;-87
2021/08/05 01:36:53;;;;;;;;;;;;;;;;;;6117005;23;19931;-84
2021/08/05 01:40:33;;;;;;;;;;;;;;;;;;6053695;23;19933;-90
2021/08/05 01:43:46;;;;;;;;;;;;;;;;;;6038118;23;19945;-84
2021/08/05 01:47:21;;;;;;;;;;;;;;;;;;6003877;23;20256;-82
2021/08/05 01:53:22;;;;;;;;;;;;;;;;;;6157306;23;19939;-83
2021/08/05 01:55:53;;;;;;;;;;;;;;;;;;6132185;23;19921;-84
2021/08/05 01:58:25;;;;;;;;;;;;;;;;;;6113052;23;19947;-86
2021/08/05 02:10:05;;;;;;;;;;;;;;;;;;6100433;23;19935;-84
2021/08/05 02:16:59;;;;;;;;;;;;;;;;;;6072018;23;19928;-88
2021/08/05 02:23:40;;;;;;;;;;;;;;;;;;6020081;23;20341;-82
2021/08/05 02:26:09;;;;;;;;;;;;;;;;;;6090128;23;19936;-84
2021/08/05 02:28:38;;;;;;;;;;;;;;;;;;6100868;23;19921;-82
2021/08/05 02:31:08;;;;;;;;;;;;;;;;;;6099397;23;19932;-81
2021/08/05 02:33:37;;;;;;;;;;;;;;;;;;6098003;23;19920;-84
2021/08/05 02:36:07;;;;;;;;;;;;;;;;;;6077337;23;19928;-81
2021/08/05 02:38:36;;;;;;;;;;;;;;;;;;6076082;23;20112;-84
2021/08/05 02:41:05;;;;;;;;;;;;;;;;;;6074752;23;20336;-84
2021/08/05 02:43:35;;;;;;;;;;;;;;;;;;6078120;23;20374;-81
2021/08/05 02:46:05;;;;;;;;;;;;;;;;;;6076010;23;19925;-86
2021/08/05 02:48:34;;;;;;;;;;;;;;;;;;6097752;23;19932;-83
2021/08/05 02:51:14;;;;;;;;;;;;;;;;;;6076306;23;19921;-84
2021/08/05 02:54:47;;;;;;;;;;;;;;;;;;6084951;23;19925;-83
2021/08/05 02:57:42;;;;;;;;;;;;;;;;;;6075102;23;20249;-83
2021/08/05 03:00:26;;;;;;;;;;;;;;;;;;6077514;23;19928;-83
2021/08/05 03:06:18;;;;;;;;;;;;;;;;;;6077623;23;19921;-85
2021/08/05 03:08:50;;;;;;;;;;;;;;;;;;6077038;23;19928;-86
2021/08/05 03:11:55;;;;;;;;;;;;;;;;;;6081829;23;19929;-86
2021/08/05 03:15:31;;;;;;;;;;;;;;;;;;6107059;23;19921;-82
2021/08/05 03:19:16;;;;;;;;;;;;;;;;;;6073966;23;19921;-82
2021/08/05 03:31:11;;;;;;;;;;;;;;;;;;5909442;24;19935;-83
2021/08/05 03:33:53;;;;;;;;;;;;;;;;;;5950266;24;20024;-83
2021/08/05 03:36:23;;;;;;;;;;;;;;;;;;5906127;24;19939;-83
2021/08/05 03:38:54;;;;;;;;;;;;;;;;;;6095684;23;20342;-82
2021/08/05 03:41:29;;;;;;;;;;;;;;;;;;6075141;23;19921;-82
2021/08/05 03:44:00;;;;;;;;;;;;;;;;;;6111273;23;19927;-83
2021/08/05 03:46:29;;;;;;;;;;;;;;;;;;6078673;23;19928;-82
2021/08/05 03:48:59;;;;;;;;;;;;;;;;;;6073130;23;19931;-85
2021/08/05 03:51:28;;;;;;;;;;;;;;;;;;6076965;23;19921;-82
2021/08/05 03:53:56;;;;;;;;;;;;;;;;;;6074550;23;19925;-87
2021/08/05 03:56:24;;;;;;;;;;;;;;;;;;6072881;23;19929;-88
2021/08/05 03:58:54;;;;;;;;;;;;;;;;;;6098303;23;19936;-84
2021/08/05 04:01:27;;;;;;;;;;;;;;;;;;6073822;23;19921;-85
2021/08/05 04:04:05;;;;;;;;;;;;;;;;;;6074805;23;19927;-87
2021/08/05 04:06:37;;;;;;;;;;;;;;;;;;6077829;23;19925;-81
2021/08/05 04:09:06;;;;;;;;;;;;;;;;;;6074731;23;19921;-82
2021/08/05 04:11:36;;;;;;;;;;;;;;;;;;6073068;23;20486;-82
2021/08/05 04:14:05;;;;;;;;;;;;;;;;;;6076083;23;19982;-85
2021/08/05 04:16:36;;;;;;;;;;;;;;;;;;6076370;23;19925;-86
2021/08/05 04:19:06;;;;;;;;;;;;;;;;;;6070626;23;19920;-85
2021/08/05 04:21:34;;;;;;;;;;;;;;;;;;6097429;23;19925;-83
2021/08/05 04:24:03;;;;;;;;;;;;;;;;;;6101645;23;20448;-81
2021/08/05 04:26:31;;;;;;;;;;;;;;;;;;6098396;23;19920;-84
2021/08/05 04:29:00;;;;;;;;;;;;;;;;;;6098252;23;19925;-83
2021/08/05 04:31:32;;;;;;;;;;;;;;;;;;6099911;23;19924;-82
2021/08/05 04:34:01;;;;;;;;;;;;;;;;;;6096760;23;20281;-83
2021/08/05 04:36:38;;;;;;;;;;;;;;;;;;6071455;23;19932;-84
2021/08/05 04:39:07;;;;;;;;;;;;;;;;;;6096400;23;19928;-82
2021/08/05 04:41:36;;;;;;;;;;;;;;;;;;6076865;23;19932;-83
2021/08/05 04:44:07;;;;;;;;;;;;;;;;;;6075422;23;19931;-83
2021/08/05 04:46:36;;;;;;;;;;;;;;;;;;6074727;23;19936;-86
2021/08/05 04:49:05;;;;;;;;;;;;;;;;;;6076535;23;20365;-82
2021/08/05 04:51:34;;;;;;;;;;;;;;;;;;6077046;23;19921;-82
2021/08/05 04:54:06;;;;;;;;;;;;;;;;;;6098316;23;19927;-83
2021/08/05 04:56:36;;;;;;;;;;;;;;;;;;6072933;23;19925;-83
2021/08/05 04:59:04;;;;;;;;;;;;;;;;;;6070575;23;19921;-85
2021/08/05 05:01:34;;;;;;;;;;;;;;;;;;6071402;23;20589;-86
2021/08/05 05:04:03;;;;;;;;;;;;;;;;;;6074353;23;20349;-85
2021/08/05 05:06:32;;;;;;;;;;;;;;;;;;6092845;23;20195;-84
2021/08/05 05:09:05;;;;;;;;;;;;;;;;;;6067855;23;20451;-85
2021/08/05 05:11:39;;;;;;;;;;;;;;;;;;6074180;23;19940;-84
2021/08/05 05:14:08;;;;;;;;;;;;;;;;;;6072947;23;20257;-80
2021/08/05 05:16:36;;;;;;;;;;;;;;;;;;6067995;23;19932;-80
2021/08/05 05:21:57;;;;;;;;;;;;;;;;;;6072561;23;19978;-86
2021/08/05 05:24:30;;;;;;;;;;;;;;;;;;6072085;23;19925;-83
2021/08/05 05:27:07;;;;;;;;;;;;;;;;;;6072796;23;20202;-82
2021/08/05 05:29:36;;;;;;;;;;;;;;;;;;6096730;23;19921;-83
2021/08/05 05:32:06;;;;;;;;;;;;;;;;;;6075627;23;19924;-85
2021/08/05 05:34:35;;;;;;;;;;;;;;;;;;6071793;23;19925;-84
2021/08/05 05:37:04;;;;;;;;;;;;;;;;;;6074257;23;19935;-86
2021/08/05 05:39:37;;;;;;;;;;;;;;;;;;6070570;23;19921;-87
2021/08/05 05:42:28;;;;;;;;;;;;;;;;;;6071910;23;20130;-85
2021/08/05 05:45:14;;;;;;;;;;;;;;;;;;6073728;23;20305;-83
2021/08/05 05:48:29;;;;;;;;;;;;;;;;;;6077791;23;20213;-81
2021/08/05 05:54:58;;;;;;;;;;;;;;;;;;6062671;23;19926;-89
2021/08/05 05:57:54;;;;;;;;;;;;;;;;;;6061848;23;19921;-82
2021/08/05 06:00:25;;;;;;;;;;;;;;;;;;6071277;23;19932;-83
2021/08/05 06:02:56;;;;;;;;;;;;;;;;;;6073505;23;19921;-87
2021/08/05 06:05:25;;;;;;;;;;;;;;;;;;6097575;23;19921;-83
2021/08/05 06:07:57;;;;;;;;;;;;;;;;;;6100474;23;19921;-85
2021/08/05 06:10:26;;;;;;;;;;;;;;;;;;6087246;23;20289;-84
2021/08/05 06:12:58;;;;;;;;;;;;;;;;;;6081907;23;19928;-83
2021/08/05 06:15:51;;;;;;;;;;;;;;;;;;6071868;23;19925;-84
2021/08/05 06:18:49;;;;;;;;;;;;;;;;;;6074946;23;19921;-81
2021/08/05 06:21:45;;;;;;;;;;;;;;;;;;6072111;23;19925;-83
2021/08/05 06:24:32;;;;;;;;;;;;;;;;;;6074025;23;19944;-82
2021/08/05 06:27:01;;;;;;;;;;;;;;;;;;6066879;23;19927;-87
2021/08/05 06:29:32;;;;;;;;;;;;;;;;;;6071540;23;19928;-85
2021/08/05 06:32:00;;;;;;;;;;;;;;;;;;6068987;23;19929;-83
2021/08/05 06:34:28;;;;;;;;;;;;;;;;;;6094124;23;19948;-84
2021/08/05 06:36:57;;;;;;;;;;;;;;;;;;6065454;23;20294;-82
2021/08/05 06:39:25;;;;;;;;;;;;;;;;;;6069428;23;19921;-80
2021/08/05 06:41:53;;;;;;;;;;;;;;;;;;6071357;23;19925;-83
2021/08/05 06:44:22;;;;;;;;;;;;;;;;;;6117761;23;19921;-82
2021/08/05 06:46:52;;;;;;;;;;;;;;;;;;6067437;23;19921;-82
2021/08/05 06:49:20;;;;;;;;;;;;;;;;;;6064811;23;19928;-80
2021/08/05 06:51:48;;;;;;;;;;;;;;;;;;6067821;23;19931;-80
2021/08/05 06:54:22;;;;;;;;;;;;;;;;;;6067535;23;19929;-81
2021/08/05 06:56:50;;;;;;;;;;;;;;;;;;6065193;23;19929;-85
2021/08/05 06:59:19;;;;;;;;;;;;;;;;;;6068205;23;19925;-83
2021/08/05 07:01:48;;;;;;;;;;;;;;;;;;6071348;23;20100;-82
2021/08/05 07:04:17;;;;;;;;;;;;;;;;;;6068464;23;19929;-87
2021/08/05 07:06:46;;;;;;;;;;;;;;;;;;6068196;23;20462;-80
2021/08/05 07:09:14;;;;;;;;;;;;;;;;;;6093316;23;19921;-80
2021/08/05 07:11:42;;;;;;;;;;;;;;;;;;6067521;23;19928;-83
2021/08/05 07:14:10;;;;;;;;;;;;;;;;;;6065823;23;20433;-82
2021/08/05 07:16:39;;;;;;;;;;;;;;;;;;6067309;23;19928;-82
2021/08/05 07:19:07;;;;;;;;;;;;;;;;;;6063595;23;19925;-81
2021/08/05 07:21:36;;;;;;;;;;;;;;;;;;6067977;23;19928;-80
2021/08/05 07:24:05;;;;;;;;;;;;;;;;;;6067041;23;20343;-81
2021/08/05 07:26:33;;;;;;;;;;;;;;;;;;6066674;23;19921;-81
2021/08/05 07:29:02;;;;;;;;;;;;;;;;;;6071627;23;19927;-81
2021/08/05 07:31:31;;;;;;;;;;;;;;;;;;6091680;23;19925;-83
2021/08/05 07:33:59;;;;;;;;;;;;;;;;;;6092389;23;19925;-82
2021/08/05 07:36:28;;;;;;;;;;;;;;;;;;6065768;23;19925;-81
2021/08/05 07:38:57;;;;;;;;;;;;;;;;;;6065519;23;19932;-80
2021/08/05 07:41:26;;;;;;;;;;;;;;;;;;6092908;23;19932;-83
2021/08/05 07:43:55;;;;;;;;;;;;;;;;;;6067634;23;19921;-81
2021/08/05 07:46:23;;;;;;;;;;;;;;;;;;6067513;23;19951;-81
2021/08/05 07:48:54;;;;;;;;;;;;;;;;;;6069479;23;19933;-83
2021/08/05 07:51:23;;;;;;;;;;;;;;;;;;6088352;23;19922;-80
2021/08/05 07:53:52;;;;;;;;;;;;;;;;;;6067031;23;19921;-84
2021/08/05 07:56:21;;;;;;;;;;;;;;;;;;6059558;23;19925;-81
2021/08/05 07:58:50;;;;;;;;;;;;;;;;;;6066904;23;20126;-82
2021/08/05 08:01:18;;;;;;;;;;;;;;;;;;6070009;23;20244;-81
2021/08/05 08:03:47;;;;;;;;;;;;;;;;;;6070431;23;19929;-80
2021/08/05 08:06:15;;;;;;;;;;;;;;;;;;6070599;23;19928;-81
2021/08/05 08:08:46;;;;;;;;;;;;;;;;;;6065493;23;19921;-80
2021/08/05 08:11:15;;;;;;;;;;;;;;;;;;6067905;23;20289;-80
2021/08/05 08:13:44;;;;;;;;;;;;;;;;;;6069816;23;19921;-82
2021/08/05 08:16:13;;;;;;;;;;;;;;;;;;6065026;23;20227;-80
2021/08/05 08:18:41;;;;;;;;;;;;;;;;;;6066452;23;20267;-88
2021/08/05 08:21:10;;;;;;;;;;;;;;;;;;6074416;23;19929;-85
2021/08/05 08:23:38;;;;;;;;;;;;;;;;;;6070856;23;19925;-82
2021/08/05 08:26:07;;;;;;;;;;;;;;;;;;6068117;23;19921;-82
2021/08/05 08:28:35;;;;;;;;;;;;;;;;;;6089069;23;19932;-80
2021/08/05 08:31:05;;;;;;;;;;;;;;;;;;6087812;23;19948;-84
2021/08/05 08:33:33;;;;;;;;;;;;;;;;;;6065846;23;19921;-80
2021/08/05 08:36:02;;;;;;;;;;;;;;;;;;6063610;23;19943;-83
2021/08/05 08:38:30;;;;;;;;;;;;;;;;;;6089468;23;19925;-81
2021/08/05 08:41:00;;;;;;;;;;;;;;;;;;6068165;23;20349;-81
2021/08/05 08:43:28;;;;;;;;;;;;;;;;;;6070037;23;19921;-81
2021/08/05 08:45:56;;;;;;;;;;;;;;;;;;6098304;23;19932;-81
2021/08/05 08:48:28;;;;;;;;;;;;;;;;;;6097321;23;19921;-84
2021/08/05 08:50:59;;;;;;;;;;;;;;;;;;6070289;23;19921;-80
2021/08/05 08:53:28;;;;;;;;;;;;;;;;;;6093123;23;19932;-82
2021/08/05 08:55:56;;;;;;;;;;;;;;;;;;6071668;23;19928;-81
2021/08/05 08:58:24;;;;;;;;;;;;;;;;;;6099833;23;19929;-85
2021/08/05 09:00:53;;;;;;;;;;;;;;;;;;6072594;23;19931;-81
2021/08/05 09:03:21;;;;;;;;;;;;;;;;;;6076808;23;19917;-85
2021/08/05 09:05:51;;;;;;;;;;;;;;;;;;6091063;23;19909;-85
2021/08/05 09:08:19;;;;;;;;;;;;;;;;;;6079481;23;19926;-83
2021/08/05 09:10:47;;;;;;;;;;;;;;;;;;6069970;23;19925;-82
2021/08/05 09:13:16;;;;;;;;;;;;;;;;;;6068859;23;20341;-81
2021/08/05 09:15:46;;;;;;;;;;;;;;;;;;6094381;23;19928;-86
2021/08/05 09:18:25;;;;;;;;;;;;;;;;;;6079348;23;19909;-87
2021/08/05 09:21:12;;;;;;;;;;;;;;;;;;6089961;23;19905;-86
2021/08/05 09:23:47;;;;;;;;;;;;;;;;;;6090998;23;19928;-86
2021/08/05 09:26:22;;;;;;;;;;;;;;;;;;6113683;23;20349;-84
2021/08/05 09:28:59;;;;;;;;;;;;;;;;;;6088118;23;19922;-81
2021/08/05 09:31:27;;;;;;;;;;;;;;;;;;6080595;23;19925;-87
2021/08/05 09:34:05;;;;;;;;;;;;;;;;;;6091396;23;20346;-86
2021/08/05 09:36:36;;;;;;;;;;;;;;;;;;6093162;23;19911;-87
2021/08/05 09:39:14;;;;;;;;;;;;;;;;;;6086449;23;19931;-86
2021/08/05 09:41:57;;;;;;;;;;;;;;;;;;6073634;23;19932;-82
2021/08/05 09:44:26;;;;;;;;;;;;;;;;;;6069738;23;19921;-84
2021/08/05 09:47:04;;;;;;;;;;;;;;;;;;6100113;23;19921;-82
2021/08/05 09:49:34;;;;;;;;;;;;;;;;;;6074273;23;19929;-82
2021/08/05 09:52:05;;;;;;;;;;;;;;;;;;6076329;23;19925;-85
2021/08/05 09:54:39;;;;;;;;;;;;;;;;;;6076188;23;19932;-85
2021/08/05 09:57:07;;;;;;;;;;;;;;;;;;6076505;23;19927;-84
2021/08/05 09:59:45;;;;;;;;;;;;;;;;;;6068638;23;20381;-87
2021/08/05 10:02:15;;;;;;;;;;;;;;;;;;6071249;23;19921;-88
2021/08/05 10:04:46;;;;;;;;;;;;;;;;;;6070010;23;19921;-85
2021/08/05 10:07:17;;;;;;;;;;;;;;;;;;6073891;23;19932;-86
2021/08/05 10:09:58;;;;;;;;;;;;;;;;;;6073611;23;19943;-87
2021/08/05 10:12:32;;;;;;;;;;;;;;;;;;6075844;23;20211;-84
2021/08/05 10:15:06;;;;;;;;;;;;;;;;;;6078158;23;20386;-88
2021/08/05 10:17:37;;;;;;;;;;;;;;;;;;6075848;23;20359;-89
2021/08/05 10:20:08;;;;;;;;;;;;;;;;;;6075892;23;19922;-85
2021/08/05 10:22:39;;;;;;;;;;;;;;;;;;6076714;23;20119;-86
2021/08/05 10:25:16;;;;;;;;;;;;;;;;;;6072940;23;19931;-90
2021/08/05 10:27:50;;;;;;;;;;;;;;;;;;6074934;23;19925;-88
2021/08/05 10:30:22;;;;;;;;;;;;;;;;;;6071570;23;19932;-91
2021/08/05 10:33:01;;;;;;;;;;;;;;;;;;6069155;23;19925;-89
2021/08/05 10:35:35;;;;;;;;;;;;;;;;;;6071075;23;19944;-90
2021/08/05 10:38:09;;;;;;;;;;;;;;;;;;6070820;23;20262;-92
2021/08/05 10:40:39;;;;;;;;;;;;;;;;;;6070524;23;19928;-90
2021/08/05 10:43:10;;;;;;;;;;;;;;;;;;6072850;23;20504;-88
2021/08/05 10:45:40;;;;;;;;;;;;;;;;;;6071239;23;19925;-89
2021/08/05 10:48:12;;;;;;;;;;;;;;;;;;6072447;23;19925;-92
2021/08/05 10:50:42;;;;;;;;;;;;;;;;;;6073430;23;19928;-88
2021/08/05 10:53:32;;;;;;;;;;;;;;;;;;6074187;23;19932;-89
2021/08/05 10:56:16;;;;;;;;;;;;;;;;;;6071784;23;19921;-89
2021/08/05 10:58:56;;;;;;;;;;;;;;;;;;6096352;23;19922;-89
2021/08/05 11:01:31;;;;;;;;;;;;;;;;;;6075390;23;20255;-89
2021/08/05 11:04:02;;;;;;;;;;;;;;;;;;6076273;23;19909;-90
2021/08/05 11:10:24;;;;;;;;;;;;;;;;;;6076702;23;19921;-89
2021/08/05 11:13:16;;;;;;;;;;;;;;;;;;6077345;23;19921;-88
2021/08/05 11:19:50;;;;;;;;;;;;;;;;;;6080712;23;19928;-88
2021/08/05 11:22:50;;;;;;;;;;;;;;;;;;6084480;23;19921;-89
2021/08/05 11:25:19;;;;;;;;;;;;;;;;;;6083206;23;19928;-90
2021/08/05 11:28:06;;;;;;;;;;;;;;;;;;6082139;23;19928;-90
2021/08/05 11:31:02;;;;;;;;;;;;;;;;;;6083987;23;20259;-88
2021/08/05 11:34:02;;;;;;;;;;;;;;;;;;6018816;23;19944;-88
2021/08/05 11:36:34;;;;;;;;;;;;;;;;;;6084200;23;19921;-88
2021/08/05 11:39:10;;;;;;;;;;;;;;;;;;6082700;23;19921;-89
2021/08/05 11:41:51;;;;;;;;;;;;;;;;;;6082520;23;19974;-88
2021/08/05 11:44:20;;;;;;;;;;;;;;;;;;6082522;23;19932;-89
2021/08/05 11:47:07;;;;;;;;;;;;;;;;;;6106020;23;19921;-89
2021/08/05 11:49:36;;;;;;;;;;;;;;;;;;6105745;23;19921;-89
2021/08/05 11:52:11;;;;;;;;;;;;;;;;;;6079307;23;19920;-88
2021/08/05 11:54:40;;;;;;;;;;;;;;;;;;6079772;23;19924;-89
2021/08/05 11:57:09;;;;;;;;;;;;;;;;;;6104311;23;20256;-90
2021/08/05 11:59:38;;;;;;;;;;;;;;;;;;6074902;23;19921;-91
2021/08/05 12:02:06;;;;;;;;;;;;;;;;;;6076022;23;19920;-89
2021/08/05 12:04:35;;;;;;;;;;;;;;;;;;6075103;23;19921;-90
2021/08/05 12:07:17;;;;;;;;;;;;;;;;;;6075883;23;19924;-90
2021/08/05 12:09:48;;;;;;;;;;;;;;;;;;6074723;23;19925;-90
2021/08/05 12:12:17;;;;;;;;;;;;;;;;;;6076835;23;19928;-91
2021/08/05 12:14:48;;;;;;;;;;;;;;;;;;6107195;23;19921;-90
2021/08/05 12:17:17;;;;;;;;;;;;;;;;;;6082534;23;19947;-91
2021/08/05 12:19:49;;;;;;;;;;;;;;;;;;6092994;23;20336;-91
2021/08/05 12:22:19;;;;;;;;;;;;;;;;;;6127909;23;19921;-90
2021/08/05 12:24:54;;;;;;;;;;;;;;;;;;6134503;23;19920;-91
2021/08/05 12:27:23;;;;;;;;;;;;;;;;;;6134986;23;20258;-90
2021/08/05 12:29:58;;;;;;;;;;;;;;;;;;6133474;23;19927;-91
2021/08/05 12:32:26;;;;;;;;;;;;;;;;;;6130535;23;20370;-91
2021/08/05 12:34:55;;;;;;;;;;;;;;;;;;6128185;23;19932;-88
2021/08/05 12:37:24;;;;;;;;;;;;;;;;;;6128687;23;20271;-88
2021/08/05 12:39:55;;;;;;;;;;;;;;;;;;6154219;23;19921;-90
2021/08/05 12:42:24;;;;;;;;;;;;;;;;;;6126871;23;19932;-88
2021/08/05 12:44:52;;;;;;;;;;;;;;;;;;6153472;23;19928;-91
2021/08/05 12:47:20;;;;;;;;;;;;;;;;;;6128761;23;19925;-88
2021/08/05 12:49:48;;;;;;;;;;;;;;;;;;6129255;23;19921;-88
2021/08/05 12:52:17;;;;;;;;;;;;;;;;;;6128596;23;20371;-88
2021/08/05 12:54:48;;;;;;;;;;;;;;;;;;6153419;23;19924;-88
2021/08/05 12:57:18;;;;;;;;;;;;;;;;;;6127853;23;20267;-88
2021/08/05 12:59:47;;;;;;;;;;;;;;;;;;6128249;23;20344;-89
2021/08/05 13:02:16;;;;;;;;;;;;;;;;;;6128374;23;19920;-90
2021/08/05 13:04:45;;;;;;;;;;;;;;;;;;6128114;23;19921;-90
2021/08/05 13:07:15;;;;;;;;;;;;;;;;;;6128768;23;19927;-89
2021/08/05 13:09:56;;;;;;;;;;;;;;;;;;6153507;23;20347;-89
2021/08/05 13:12:25;;;;;;;;;;;;;;;;;;6129025;23;19924;-90
2021/08/05 13:14:54;;;;;;;;;;;;;;;;;;6128367;23;19920;-89
2021/08/05 13:17:24;;;;;;;;;;;;;;;;;;6128976;23;19920;-90
2021/08/05 13:19:53;;;;;;;;;;;;;;;;;;6128689;23;19920;-89
2021/08/05 13:22:33;;;;;;;;;;;;;;;;;;6128938;23;20256;-89
2021/08/05 13:25:04;;;;;;;;;;;;;;;;;;6128827;23;19929;-88
2021/08/05 13:30:46;;;;;;;;;;;;;;;;;;6153228;23;19920;-88
2021/08/05 13:33:30;;;;;;;;;;;;;;;;;;6128987;23;19924;-88
2021/08/05 13:36:09;;;;;;;;;;;;;;;;;;6130207;23;19920;-89
2021/08/05 13:38:45;;;;;;;;;;;;;;;;;;6156330;23;19931;-89
2021/08/05 13:41:15;;;;;;;;;;;;;;;;;;6129800;23;19920;-89
2021/08/05 13:43:43;;;;;;;;;;;;;;;;;;6129511;23;19925;-88
2021/08/05 13:46:11;;;;;;;;;;;;;;;;;;6130300;23;19932;-88
2021/08/05 13:48:39;;;;;;;;;;;;;;;;;;6132202;23;19920;-88
2021/08/05 13:51:10;;;;;;;;;;;;;;;;;;6154395;23;20337;-88
2021/08/05 13:53:39;;;;;;;;;;;;;;;;;;6129036;23;19931;-88
2021/08/05 13:56:07;;;;;;;;;;;;;;;;;;6128326;23;19925;-87
2021/08/05 13:59:03;;;;;;;;;;;;;;;;;;6129656;23;19928;-87
2021/08/05 14:01:33;;;;;;;;;;;;;;;;;;6152296;23;19920;-88
2021/08/05 14:04:03;;;;;;;;;;;;;;;;;;6127206;23;19932;-89
2021/08/05 14:06:37;;;;;;;;;;;;;;;;;;6127212;23;19924;-88
2021/08/05 14:09:10;;;;;;;;;;;;;;;;;;6128048;23;20332;-89
2021/08/05 14:11:38;;;;;;;;;;;;;;;;;;6128097;23;20357;-90
2021/08/05 14:14:10;;;;;;;;;;;;;;;;;;6127382;23;19920;-89
2021/08/05 14:16:47;;;;;;;;;;;;;;;;;;6177027;23;19928;-90
2021/08/05 14:19:50;;;;;;;;;;;;;;;;;;6128247;23;19921;-90
2021/08/05 14:22:27;;;;;;;;;;;;;;;;;;6130256;23;19927;-90
2021/08/05 14:24:55;;;;;;;;;;;;;;;;;;6131221;23;19924;-91
2021/08/05 14:27:26;;;;;;;;;;;;;;;;;;6154937;23;19921;-90
2021/08/05 14:30:00;;;;;;;;;;;;;;;;;;6129672;23;20508;-89
2021/08/05 14:32:28;;;;;;;;;;;;;;;;;;6158780;23;19947;-90
2021/08/05 14:35:00;;;;;;;;;;;;;;;;;;6130853;23;20335;-89
2021/08/05 14:37:28;;;;;;;;;;;;;;;;;;6130454;23;19921;-90
2021/08/05 14:39:56;;;;;;;;;;;;;;;;;;6129485;23;19925;-91
2021/08/05 14:42:24;;;;;;;;;;;;;;;;;;6129489;23;19920;-90
2021/08/05 14:44:53;;;;;;;;;;;;;;;;;;6129078;23;19931;-89
2021/08/05 14:47:22;;;;;;;;;;;;;;;;;;6155646;23;19927;-89
2021/08/05 14:49:51;;;;;;;;;;;;;;;;;;6129494;23;20355;-88
2021/08/05 14:52:19;;;;;;;;;;;;;;;;;;6129770;23;20339;-89
2021/08/05 14:54:47;;;;;;;;;;;;;;;;;;6132565;23;19931;-88
2021/08/05 14:57:15;;;;;;;;;;;;;;;;;;6162598;23;19921;-88
2021/08/05 14:59:43;;;;;;;;;;;;;;;;;;6142691;23;19928;-89
2021/08/05 15:02:12;;;;;;;;;;;;;;;;;;6136758;23;20267;-88
2021/08/05 15:04:43;;;;;;;;;;;;;;;;;;6139302;23;20316;-89
2021/08/05 15:07:11;;;;;;;;;;;;;;;;;;6136942;23;19925;-88
2021/08/05 15:09:39;;;;;;;;;;;;;;;;;;6137482;23;19920;-88
2021/08/05 15:12:07;;;;;;;;;;;;;;;;;;6136367;23;19927;-88
2021/08/05 15:14:36;;;;;;;;;;;;;;;;;;6134652;23;20266;-88
2021/08/05 15:17:05;;;;;;;;;;;;;;;;;;6130496;23;19925;-88
2021/08/05 15:19:35;;;;;;;;;;;;;;;;;;6154546;23;20358;-88
2021/08/05 15:22:04;;;;;;;;;;;;;;;;;;6131787;23;19931;-88
2021/08/05 15:24:33;;;;;;;;;;;;;;;;;;6130399;23;19927;-90
2021/08/05 15:27:01;;;;;;;;;;;;;;;;;;6129542;23;19921;-89
2021/08/05 15:29:29;;;;;;;;;;;;;;;;;;6130591;23;19927;-89
2021/08/05 15:31:58;;;;;;;;;;;;;;;;;;6154749;23;19921;-89
2021/08/05 15:34:26;;;;;;;;;;;;;;;;;;6148330;23;19909;-90
2021/08/05 15:36:54;;;;;;;;;;;;;;;;;;6157976;23;19964;-90
2021/08/05 15:39:24;;;;;;;;;;;;;;;;;;6157567;23;19952;-90
2021/08/05 15:41:52;;;;;;;;;;;;;;;;;;6182686;23;19904;-90
2021/08/05 15:44:20;;;;;;;;;;;;;;;;;;6157087;23;19956;-90
2021/08/05 15:46:48;;;;;;;;;;;;;;;;;;6154558;23;19927;-90
2021/08/05 15:49:17;;;;;;;;;;;;;;;;;;6157728;23;19973;-90
2021/08/05 15:51:45;;;;;;;;;;;;;;;;;;6157948;23;19953;-91
2021/08/05 15:54:17;;;;;;;;;;;;;;;;;;6157565;23;19953;-91
2021/08/05 15:56:47;;;;;;;;;;;;;;;;;;6157198;23;19948;-90
2021/08/05 15:59:16;;;;;;;;;;;;;;;;;;6164622;23;19927;-89
2021/08/05 16:01:53;;;;;;;;;;;;;;;;;;6128885;23;19921;-90
2021/08/05 16:04:21;;;;;;;;;;;;;;;;;;6156848;23;19920;-92
2021/08/05 16:06:50;;;;;;;;;;;;;;;;;;6126986;23;20375;-89
2021/08/05 16:09:18;;;;;;;;;;;;;;;;;;6128551;23;19920;-90
2021/08/05 16:11:47;;;;;;;;;;;;;;;;;;6129351;23;19924;-90
2021/08/05 16:14:24;;;;;;;;;;;;;;;;;;6129430;23;19924;-90
2021/08/05 16:16:56;;;;;;;;;;;;;;;;;;6129164;23;20263;-91
2021/08/05 16:19:24;;;;;;;;;;;;;;;;;;6129299;23;19924;-92
2021/08/05 16:21:54;;;;;;;;;;;;;;;;;;6129234;23;20314;-89
2021/08/05 16:24:22;;;;;;;;;;;;;;;;;;6128231;23;20330;-90
2021/08/05 16:26:53;;;;;;;;;;;;;;;;;;6129733;23;19920;-90
2021/08/05 16:29:22;;;;;;;;;;;;;;;;;;6129582;23;19920;-90
2021/08/05 16:31:51;;;;;;;;;;;;;;;;;;6130394;23;19928;-91
2021/08/05 16:34:20;;;;;;;;;;;;;;;;;;6131031;23;19920;-91
2021/08/05 16:36:48;;;;;;;;;;;;;;;;;;6131477;23;19921;-92
2021/08/05 16:39:17;;;;;;;;;;;;;;;;;;6154732;23;19920;-92
2021/08/05 16:41:45;;;;;;;;;;;;;;;;;;6129924;23;19928;-91
2021/08/05 16:44:15;;;;;;;;;;;;;;;;;;6129801;23;19921;-92
2021/08/05 16:46:45;;;;;;;;;;;;;;;;;;6129980;23;19924;-91
2021/08/05 16:49:15;;;;;;;;;;;;;;;;;;6130241;23;20340;-92
2021/08/05 16:51:43;;;;;;;;;;;;;;;;;;6129673;23;19946;-92
2021/08/05 16:54:21;;;;;;;;;;;;;;;;;;6130024;23;19920;-92
2021/08/05 16:56:55;;;;;;;;;;;;;;;;;;6132659;23;19921;-92
2021/08/05 16:59:24;;;;;;;;;;;;;;;;;;6130942;23;19925;-93
2021/08/05 17:01:54;;;;;;;;;;;;;;;;;;6131705;23;19920;-93
2021/08/05 17:04:22;;;;;;;;;;;;;;;;;;6131756;23;19999;-90
2021/08/05 17:09:42;;;;;;;;;;;;;;;;;;6135531;23;19925;-92
2021/08/05 17:12:12;;;;;;;;;;;;;;;;;;6134108;23;19924;-91
2021/08/05 17:14:42;;;;;;;;;;;;;;;;;;6135199;23;19921;-91
2021/08/05 17:17:10;;;;;;;;;;;;;;;;;;6132912;23;19921;-92
2021/08/05 17:19:40;;;;;;;;;;;;;;;;;;6131502;23;19921;-91
2021/08/05 17:22:09;;;;;;;;;;;;;;;;;;6130031;23;19920;-91
2021/08/05 17:24:38;;;;;;;;;;;;;;;;;;6129339;23;20276;-90
2021/08/05 17:27:07;;;;;;;;;;;;;;;;;;6129373;23;19921;-90
2021/08/05 17:29:35;;;;;;;;;;;;;;;;;;6129952;23;19924;-90
2021/08/05 17:32:06;;;;;;;;;;;;;;;;;;6129260;23;19920;-92
2021/08/05 17:34:35;;;;;;;;;;;;;;;;;;6130956;23;20286;-90
2021/08/05 17:37:04;;;;;;;;;;;;;;;;;;6131526;23;20369;-90
2021/08/05 17:39:32;;;;;;;;;;;;;;;;;;6129138;23;19932;-91
2021/08/05 17:42:01;;;;;;;;;;;;;;;;;;6129133;23;19927;-91
2021/08/05 17:44:29;;;;;;;;;;;;;;;;;;6129941;23;20254;-89
2021/08/05 17:46:57;;;;;;;;;;;;;;;;;;6130376;23;19928;-92
2021/08/05 17:49:29;;;;;;;;;;;;;;;;;;6130934;23;19924;-89
2021/08/05 17:51:58;;;;;;;;;;;;;;;;;;6155378;23;19920;-91
2021/08/05 17:54:26;;;;;;;;;;;;;;;;;;6130615;23;20266;-90
2021/08/05 17:56:55;;;;;;;;;;;;;;;;;;6131447;23;20267;-92
2021/08/05 17:59:23;;;;;;;;;;;;;;;;;;6156818;23;19920;-89
2021/08/05 18:01:52;;;;;;;;;;;;;;;;;;6132380;23;20332;-89
2021/08/05 18:04:21;;;;;;;;;;;;;;;;;;6134092;23;19931;-93
2021/08/05 18:06:51;;;;;;;;;;;;;;;;;;6130048;23;19921;-92
2021/08/05 18:16:57;;;;;;;;;;;;;;;;;;6136691;23;19919;-92
2021/08/05 18:19:26;;;;;;;;;;;;;;;;;;6133428;23;19920;-94
2021/08/05 18:21:55;;;;;;;;;;;;;;;;;;6133858;23;19927;-94
2021/08/05 18:24:24;;;;;;;;;;;;;;;;;;6151613;23;19918;-95
2021/08/05 18:26:52;;;;;;;;;;;;;;;;;;6159090;23;19948;-94
2021/08/05 18:29:20;;;;;;;;;;;;;;;;;;6158471;23;19957;-95
2021/08/05 18:31:49;;;;;;;;;;;;;;;;;;6157937;23;19961;-94
2021/08/05 18:34:17;;;;;;;;;;;;;;;;;;6156213;23;19921;-93
2021/08/05 18:36:45;;;;;;;;;;;;;;;;;;6157799;23;19948;-94